Belmont, Washington
Current Conditions -  °F | °C
As of 7:53 PM on Sunday 25 Jan 2015 (Local Time) from KPUW Reporting Station
Clear Clear  
Wind Chill: 41°   Ceiling: Unl
Heat Index: 47°   Visibility: 10mi
Dew Point: 40°   Wind: 15mph
Humidity: 77%   Direction: 90°E
Pressure: 30.19"   Gusts: NA
Location:  47.09°N, 117.16°W
Report Text: KPUW 260353Z AUTO 09013KT 10SM CLR 08/04 A3019 RMK AO2 SLP234 T00830044
Loading
Personal Weather Stations






























Interactive Weather Map New forecast layout! Learn more

10-Day Weather Forecast

Advertisements
Track Severe Weather on mobile